Time;durP1;ratioP1;P1;durP2;ratioP2;P2;SDS_P1;SDS_P2;PMS_P1;PMS_P2;Temp;Humidity;BMP_temperature;BMP_pressure;BME280_temperature;BME280_humidity;BME280_pressure;Samples;Min_cycle;Max_cycle;Signal;HPM_P1;HPM_P2
2021/05/22 00:00:58;;;;;;;7.00;2.25;;;11.30;99.90;;;;;;5029970;28;20096;-45
2021/05/22 00:03:24;;;;;;;10.73;2.03;;;11.30;99.90;;;;;;5029929;28;20029;-45
2021/05/22 00:05:50;;;;;;;13.68;2.22;;;11.30;99.90;;;;;;5029725;28;20030;-46
2021/05/22 00:08:15;;;;;;;4.47;2.25;;;11.30;99.90;;;;;;5029567;28;20219;-47
2021/05/22 00:10:41;;;;;;;4.15;1.77;;;11.30;99.90;;;;;;5029455;28;20064;-48
2021/05/22 00:13:06;;;;;;;8.75;1.80;;;11.30;99.90;;;;;;5029304;28;20086;-47
2021/05/22 00:15:32;;;;;;;4.93;2.50;;;11.20;99.90;;;;;;5029560;28;20025;-45
2021/05/22 00:17:57;;;;;;;6.70;2.00;;;11.30;99.90;;;;;;5029036;28;20025;-45
2021/05/22 00:20:23;;;;;;;5.13;1.83;;;11.30;99.90;;;;;;5028937;28;20036;-45
2021/05/22 00:22:48;;;;;;;7.35;2.20;;;11.30;99.90;;;;;;5029428;28;20095;-46
2021/05/22 00:25:14;;;;;;;6.22;2.35;;;11.30;99.90;;;;;;5029368;28;20068;-47
2021/05/22 00:27:40;;;;;;;6.85;1.73;;;11.30;99.90;;;;;;5028740;28;20507;-44
2021/05/22 00:30:09;;;;;;;10.55;1.83;;;11.30;99.90;;;;;;5029319;28;20037;-47
2021/05/22 00:32:36;;;;;;;8.77;1.98;;;11.30;99.90;;;;;;5029196;28;20414;-46
2021/05/22 00:35:02;;;;;;;5.88;2.38;;;11.30;99.90;;;;;;5028991;28;20018;-47
2021/05/22 00:37:27;;;;;;;6.90;2.00;;;11.20;99.90;;;;;;5027272;28;20032;-46
2021/05/22 00:39:53;;;;;;;5.43;1.88;;;11.20;99.90;;;;;;5029109;28;20025;-46
2021/05/22 00:42:18;;;;;;;11.57;2.40;;;11.20;99.90;;;;;;5029230;28;20029;-46
2021/05/22 00:45:06;;;;;;;9.30;2.17;;;11.20;99.90;;;;;;5029192;28;20025;-49
2021/05/22 00:47:32;;;;;;;7.25;2.67;;;11.20;99.90;;;;;;5028349;28;20040;-46
2021/05/22 00:49:59;;;;;;;10.25;2.55;;;11.20;99.90;;;;;;5029309;28;20033;-46
2021/05/22 00:52:25;;;;;;;4.15;1.95;;;11.20;99.90;;;;;;5028668;28;20456;-46
2021/05/22 00:54:51;;;;;;;7.05;1.83;;;11.30;99.90;;;;;;5028977;28;20088;-47
2021/05/22 00:57:17;;;;;;;5.47;1.95;;;11.20;99.90;;;;;;5028219;28;20498;-46
2021/05/22 00:59:43;;;;;;;4.95;2.05;;;11.20;99.90;;;;;;5028520;28;20017;-45
2021/05/22 01:02:10;;;;;;;5.70;1.77;;;11.20;99.90;;;;;;5028907;28;20026;-46
2021/05/22 01:04:36;;;;;;;9.25;2.10;;;11.20;99.90;;;;;;5029046;28;20045;-47
2021/05/22 01:07:02;;;;;;;3.50;2.00;;;11.20;99.90;;;;;;5028490;28;20022;-47
2021/05/22 01:09:27;;;;;;;5.35;1.85;;;11.10;99.90;;;;;;5028025;28;20302;-45
2021/05/22 01:12:00;;;;;;;6.80;1.95;;;11.20;99.90;;;;;;5027980;28;20517;-46
2021/05/22 01:14:38;;;;;;;5.05;2.00;;;11.20;99.90;;;;;;5028647;28;20040;-45
2021/05/22 01:17:05;;;;;;;7.32;1.77;;;11.10;99.90;;;;;;5029043;28;20079;-46
2021/05/22 01:20:07;;;;;;;7.22;2.22;;;11.10;99.90;;;;;;5028024;28;20030;-47
2021/05/22 01:22:46;;;;;;;4.13;2.13;;;11.20;99.90;;;;;;5026946;28;20029;-46
2021/05/22 01:25:31;;;;;;;6.88;1.90;;;11.20;99.90;;;;;;5027047;28;20506;-46
2021/05/22 01:27:59;;;;;;;9.32;2.25;;;11.20;99.90;;;;;;5028394;28;20030;-46
2021/05/22 01:30:25;;;;;;;8.35;2.30;;;11.20;99.90;;;;;;5028597;28;20036;-46
2021/05/22 01:32:51;;;;;;;6.90;2.30;;;11.20;99.90;;;;;;5028302;28;20446;-46
2021/05/22 01:35:17;;;;;;;8.77;2.03;;;11.20;99.90;;;;;;5028134;28;20032;-46
2021/05/22 01:37:43;;;;;;;8.57;2.08;;;11.20;99.90;;;;;;5027929;28;20031;-47
2021/05/22 01:40:09;;;;;;;8.27;2.25;;;11.20;99.90;;;;;;5026878;28;20100;-46
2021/05/22 01:42:35;;;;;;;5.60;1.83;;;11.20;99.90;;;;;;5028235;28;20088;-46
2021/05/22 01:45:03;;;;;;;8.35;2.17;;;11.30;99.90;;;;;;5028315;28;20029;-47
2021/05/22 01:47:30;;;;;;;4.13;1.73;;;11.30;99.90;;;;;;5026261;28;20048;-49
2021/05/22 01:49:56;;;;;;;5.47;1.90;;;11.20;99.90;;;;;;5028153;28;20284;-46
2021/05/22 01:52:23;;;;;;;10.05;2.38;;;11.30;99.90;;;;;;5028320;28;20064;-45
2021/05/22 01:54:49;;;;;;;12.35;2.10;;;11.20;99.90;;;;;;5032321;28;20115;-46
2021/05/22 01:57:16;;;;;;;7.90;2.30;;;11.20;99.90;;;;;;5031551;28;20044;-46
2021/05/22 01:59:42;;;;;;;3.08;1.30;;;11.20;99.90;;;;;;5031498;28;20022;-49
2021/05/22 02:02:08;;;;;;;8.43;2.10;;;11.20;99.90;;;;;;5032100;28;20034;-45
2021/05/22 02:04:36;;;;;;;6.07;2.35;;;11.20;99.90;;;;;;5032041;28;20474;-46
2021/05/22 02:07:02;;;;;;;11.43;2.42;;;11.20;99.90;;;;;;5032311;28;20452;-45
2021/05/22 02:09:30;;;;;;;7.03;2.30;;;11.20;99.90;;;;;;5031791;28;20033;-46
2021/05/22 02:11:56;;;;;;;12.00;2.40;;;11.30;99.90;;;;;;5031139;28;20338;-45
2021/05/22 02:14:32;;;;;;;7.30;1.80;;;11.30;99.90;;;;;;5031844;28;20037;-46
2021/05/22 02:16:58;;;;;;;6.95;2.15;;;11.40;99.90;;;;;;5031887;28;20030;-45
2021/05/22 02:19:27;;;;;;;9.90;2.15;;;11.40;99.90;;;;;;5029983;28;20025;-45
2021/05/22 02:21:54;;;;;;;7.50;1.90;;;11.40;99.90;;;;;;5031698;28;20387;-45
2021/05/22 02:24:24;;;;;;;7.60;1.75;;;11.40;99.90;;;;;;5031777;28;20025;-45
2021/05/22 02:26:51;;;;;;;4.32;1.77;;;11.40;99.90;;;;;;5031791;28;20022;-44
2021/05/22 02:29:20;;;;;;;4.82;1.80;;;11.40;99.90;;;;;;5030983;28;20337;-44
2021/05/22 02:31:48;;;;;;;6.32;1.70;;;11.40;99.90;;;;;;5030707;28;20052;-47
2021/05/22 02:34:16;;;;;;;8.13;2.33;;;11.40;99.90;;;;;;5031078;28;20115;-45
2021/05/22 02:36:44;;;;;;;4.80;1.67;;;11.30;99.90;;;;;;5031487;28;20405;-45
2021/05/22 02:39:11;;;;;;;5.35;2.03;;;11.30;99.90;;;;;;5030911;28;20033;-44
2021/05/22 02:41:38;;;;;;;4.57;1.70;;;11.30;99.90;;;;;;5029998;28;20018;-45
2021/05/22 02:44:05;;;;;;;6.78;1.55;;;11.30;99.90;;;;;;5031354;28;20037;-45
2021/05/22 02:46:41;;;;;;;4.88;1.67;;;11.20;99.90;;;;;;5031582;28;20048;-46
2021/05/22 02:49:08;;;;;;;6.93;1.55;;;11.20;99.90;;;;;;5030866;28;20053;-45
2021/05/22 02:51:35;;;;;;;4.07;1.55;;;11.20;99.90;;;;;;5031348;28;20044;-45
2021/05/22 02:54:03;;;;;;;4.88;1.65;;;11.20;99.90;;;;;;5031025;28;20091;-45
2021/05/22 02:56:32;;;;;;;4.95;1.20;;;11.20;99.90;;;;;;5029173;28;20032;-45
2021/05/22 02:58:58;;;;;;;3.92;1.75;;;11.10;99.90;;;;;;5030630;28;20101;-45
2021/05/22 03:01:25;;;;;;;4.88;1.30;;;11.10;99.90;;;;;;5030972;28;20107;-44
2021/05/22 03:03:53;;;;;;;6.18;1.52;;;11.00;99.90;;;;;;5029085;28;20463;-45
2021/05/22 03:06:19;;;;;;;3.85;1.60;;;11.00;99.90;;;;;;5030743;28;20128;-46
2021/05/22 03:08:47;;;;;;;3.42;1.30;;;10.80;99.90;;;;;;5030488;28;20096;-45
2021/05/22 03:11:15;;;;;;;4.25;1.90;;;10.80;99.90;;;;;;5030813;28;20036;-45
2021/05/22 03:13:40;;;;;;;3.42;1.25;;;10.80;99.90;;;;;;5030589;28;20108;-46
2021/05/22 03:16:06;;;;;;;3.78;1.40;;;10.70;99.90;;;;;;5031129;28;20448;-45
2021/05/22 03:18:33;;;;;;;8.45;1.17;;;10.70;99.90;;;;;;5030099;28;20032;-45
2021/05/22 03:20:59;;;;;;;3.83;1.33;;;10.60;99.90;;;;;;5030577;28;20049;-48
2021/05/22 03:23:24;;;;;;;2.92;0.90;;;10.60;99.90;;;;;;5030704;28;20071;-45
2021/05/22 03:25:50;;;;;;;3.80;0.93;;;10.60;99.90;;;;;;5030168;28;20028;-45
2021/05/22 03:28:16;;;;;;;2.40;1.02;;;10.60;99.90;;;;;;5029697;28;20036;-45
2021/05/22 03:30:42;;;;;;;4.32;0.90;;;10.50;99.90;;;;;;5030600;28;20072;-44
2021/05/22 03:33:07;;;;;;;1.60;1.08;;;10.50;99.90;;;;;;5030532;28;20120;-46
2021/05/22 03:35:33;;;;;;;1.63;1.00;;;10.40;99.90;;;;;;5030351;28;20098;-45
2021/05/22 03:37:58;;;;;;;3.42;1.38;;;10.40;99.90;;;;;;5029738;28;20029;-46
2021/05/22 03:40:24;;;;;;;6.32;0.98;;;10.40;99.90;;;;;;5030213;28;20029;-45
2021/05/22 03:42:50;;;;;;;4.50;0.82;;;10.30;99.90;;;;;;5032868;28;20033;-46
2021/05/22 03:45:16;;;;;;;3.50;0.98;;;10.30;99.90;;;;;;5030178;28;20482;-47
2021/05/22 03:47:41;;;;;;;2.38;0.68;;;10.30;99.90;;;;;;5029571;28;20034;-45
2021/05/22 03:50:07;;;;;;;1.45;0.90;;;10.30;99.90;;;;;;5029990;28;20064;-45
2021/05/22 03:52:33;;;;;;;2.08;1.05;;;10.30;99.90;;;;;;5029787;28;20101;-46
2021/05/22 03:54:58;;;;;;;3.25;0.80;;;10.40;99.90;;;;;;5030406;28;20100;-48
2021/05/22 03:57:24;;;;;;;2.40;0.77;;;10.40;99.90;;;;;;5029435;28;20064;-46
2021/05/22 03:59:50;;;;;;;2.65;0.88;;;10.50;99.90;;;;;;5029893;28;20033;-46
2021/05/22 04:02:16;;;;;;;1.92;0.70;;;10.50;99.90;;;;;;5030023;28;20099;-49
2021/05/22 04:04:42;;;;;;;2.00;0.90;;;10.50;99.90;;;;;;5029719;28;20022;-45
2021/05/22 04:07:09;;;;;;;3.13;1.00;;;10.60;99.90;;;;;;5029741;28;20090;-45
2021/05/22 04:09:34;;;;;;;2.30;1.02;;;10.60;99.90;;;;;;5028914;28;20172;-46
2021/05/22 04:12:00;;;;;;;4.60;1.27;;;10.60;99.90;;;;;;5029441;28;20021;-45
2021/05/22 04:14:25;;;;;;;2.47;1.20;;;10.60;99.90;;;;;;5029627;28;20033;-48
2021/05/22 04:16:51;;;;;;;2.60;1.20;;;10.60;99.90;;;;;;5029049;28;20029;-47
2021/05/22 04:19:16;;;;;;;2.20;1.10;;;10.60;99.90;;;;;;5028901;28;20211;-47
2021/05/22 04:21:41;;;;;;;5.93;1.10;;;10.60;99.90;;;;;;5029383;28;20057;-46
2021/05/22 04:24:08;;;;;;;4.22;1.77;;;10.60;99.90;;;;;;5029566;28;20033;-46
2021/05/22 04:26:34;;;;;;;5.20;1.10;;;10.60;99.90;;;;;;5029467;28;20025;-46
2021/05/22 04:28:59;;;;;;;2.75;1.02;;;10.60;99.90;;;;;;5028898;28;20037;-45
2021/05/22 04:31:26;;;;;;;3.92;0.98;;;10.60;99.90;;;;;;5028163;28;20035;-45
2021/05/22 04:33:51;;;;;;;5.50;1.13;;;10.60;99.90;;;;;;5029197;28;20124;-45
2021/05/22 04:36:17;;;;;;;3.80;1.25;;;10.60;99.90;;;;;;5027856;28;20112;-46
2021/05/22 04:38:42;;;;;;;5.68;1.30;;;10.70;99.90;;;;;;5028698;28;20033;-46
2021/05/22 04:41:08;;;;;;;2.38;1.38;;;10.80;99.90;;;;;;5027929;28;20079;-46
2021/05/22 04:43:33;;;;;;;3.83;1.23;;;10.80;99.90;;;;;;5028554;28;20463;-45
2021/05/22 04:45:59;;;;;;;2.67;1.38;;;10.80;99.90;;;;;;5029402;28;20060;-46
2021/05/22 04:48:24;;;;;;;5.53;1.35;;;10.80;99.90;;;;;;5028479;28;20026;-48
2021/05/22 04:50:49;;;;;;;5.78;1.88;;;10.80;99.90;;;;;;5028922;28;20041;-47
2021/05/22 04:53:15;;;;;;;9.10;1.45;;;10.90;99.90;;;;;;5028912;28;20108;-46
2021/05/22 04:55:41;;;;;;;5.72;1.73;;;10.90;99.90;;;;;;5028862;28;20045;-46
2021/05/22 04:58:07;;;;;;;2.15;1.00;;;10.90;99.90;;;;;;5028239;28;20017;-46
2021/05/22 05:00:32;;;;;;;2.28;1.30;;;11.00;99.90;;;;;;5027614;28;20026;-49
2021/05/22 05:02:59;;;;;;;8.35;1.30;;;11.00;99.90;;;;;;5028638;28;20033;-47
2021/05/22 05:05:24;;;;;;;5.15;1.33;;;10.90;99.90;;;;;;5028930;28;20449;-46
2021/05/22 05:07:50;;;;;;;5.63;1.67;;;11.00;99.90;;;;;;5028150;28;20087;-46
2021/05/22 05:10:16;;;;;;;6.45;1.90;;;10.90;99.90;;;;;;5028975;28;20038;-48
2021/05/22 05:12:41;;;;;;;5.35;1.20;;;11.00;99.90;;;;;;5028912;28;20079;-47
2021/05/22 05:15:07;;;;;;;4.90;1.58;;;10.90;99.90;;;;;;5028809;28;20068;-47
2021/05/22 05:17:33;;;;;;;6.28;1.60;;;10.80;99.90;;;;;;5026771;28;20083;-46
2021/05/22 05:19:59;;;;;;;3.30;1.30;;;10.70;99.90;;;;;;5027154;28;20280;-46
2021/05/22 05:22:26;;;;;;;6.25;1.70;;;10.80;99.90;;;;;;5028950;28;20021;-47
2021/05/22 05:24:55;;;;;;;3.42;1.23;;;10.80;99.90;;;;;;5028715;28;20022;-47
2021/05/22 05:27:21;;;;;;;5.35;1.30;;;10.80;99.90;;;;;;5027105;28;20091;-47
2021/05/22 05:29:46;;;;;;;7.57;2.17;;;10.80;99.90;;;;;;5028596;28;20451;-47
2021/05/22 05:32:12;;;;;;;3.80;1.17;;;10.80;99.90;;;;;;5027037;28;20036;-48
2021/05/22 05:34:41;;;;;;;4.93;1.30;;;10.80;99.90;;;;;;5028618;28;20036;-46
2021/05/22 05:37:08;;;;;;;7.35;1.60;;;11.00;99.90;;;;;;5028571;28;20025;-46
2021/05/22 05:39:34;;;;;;;3.15;1.40;;;11.00;99.90;;;;;;5027661;28;20033;-47
2021/05/22 05:41:59;;;;;;;5.80;1.30;;;11.00;99.90;;;;;;5027846;28;20033;-47
2021/05/22 05:44:25;;;;;;;5.93;1.33;;;11.10;99.90;;;;;;5028285;28;20029;-47
2021/05/22 05:46:50;;;;;;;4.72;1.50;;;11.10;99.90;;;;;;5028201;28;20232;-48
2021/05/22 05:49:16;;;;;;;5.15;1.50;;;11.30;99.90;;;;;;5027604;28;20056;-46
2021/05/22 05:51:41;;;;;;;2.70;1.10;;;11.30;99.90;;;;;;5028408;28;20084;-48
2021/05/22 05:54:06;;;;;;;6.60;1.70;;;11.30;99.90;;;;;;5028235;28;20025;-49
2021/05/22 05:56:32;;;;;;;7.75;1.88;;;11.40;99.90;;;;;;5028403;28;20097;-49
2021/05/22 05:58:58;;;;;;;3.78;1.77;;;11.40;99.90;;;;;;5026049;28;20064;-48
2021/05/22 06:01:23;;;;;;;4.50;1.90;;;11.50;99.90;;;;;;5028006;28;20033;-46
2021/05/22 06:03:49;;;;;;;7.80;2.00;;;11.60;99.90;;;;;;5028500;28;20029;-46
2021/05/22 06:06:15;;;;;;;7.93;2.13;;;11.50;99.90;;;;;;5028460;28;20032;-48
2021/05/22 06:08:40;;;;;;;7.25;2.15;;;11.60;99.90;;;;;;5027781;28;20030;-47
2021/05/22 06:11:08;;;;;;;4.38;1.60;;;11.60;99.90;;;;;;5028413;28;20325;-46
2021/05/22 06:13:35;;;;;;;6.63;1.75;;;11.80;99.90;;;;;;5027689;28;20147;-47
2021/05/22 06:18:35;;;;;;;6.63;2.10;;;11.90;99.90;;;;;;5027792;28;20087;-49
2021/05/22 06:21:02;;;;;;;7.20;2.00;;;11.80;99.90;;;;;;5026863;28;20045;-47
2021/05/22 06:23:28;;;;;;;10.80;2.58;;;11.90;99.90;;;;;;5026512;28;20034;-47
2021/05/22 06:25:54;;;;;;;18.73;3.55;;;12.00;99.90;;;;;;5028677;28;20384;-47
2021/05/22 06:28:19;;;;;;;6.47;1.48;;;12.00;99.90;;;;;;5029256;28;20038;-45
2021/05/22 06:30:46;;;;;;;4.32;2.00;;;12.10;99.90;;;;;;5029360;28;20041;-45
2021/05/22 06:33:11;;;;;;;11.80;1.63;;;12.20;99.90;;;;;;5047747;28;20017;-45
2021/05/22 06:35:37;;;;;;;8.65;2.05;;;12.20;99.90;;;;;;5047637;28;20074;-46
2021/05/22 06:38:04;;;;;;;6.68;1.63;;;12.30;99.90;;;;;;5036031;28;20433;-46
2021/05/22 06:40:30;;;;;;;5.13;1.80;;;12.40;99.90;;;;;;5041135;28;20030;-45
2021/05/22 06:42:56;;;;;;;8.02;1.60;;;12.60;99.90;;;;;;5042724;28;20049;-48
2021/05/22 06:45:24;;;;;;;5.28;1.48;;;12.80;99.90;;;;;;5050725;28;20118;-45
2021/05/22 06:47:49;;;;;;;10.20;1.90;;;13.00;99.90;;;;;;5036968;28;20149;-45
2021/05/22 06:50:16;;;;;;;7.30;1.50;;;13.00;99.90;;;;;;5049809;28;20422;-45
2021/05/22 06:52:41;;;;;;;7.97;1.42;;;12.90;99.90;;;;;;5048977;28;20040;-47
2021/05/22 06:55:08;;;;;;;6.90;1.65;;;13.00;99.90;;;;;;5051423;28;20029;-46
2021/05/22 06:57:34;;;;;;;5.35;2.28;;;12.90;99.90;;;;;;5049925;28;20052;-46
2021/05/22 06:59:59;;;;;;;5.03;1.30;;;13.00;99.90;;;;;;5050881;28;20108;-45
2021/05/22 07:02:25;;;;;;;5.05;1.75;;;13.10;99.90;;;;;;5051038;28;20049;-48
2021/05/22 07:04:51;;;;;;;7.28;2.13;;;13.20;99.90;;;;;;5051406;28;20471;-47
2021/05/22 07:07:16;;;;;;;7.47;1.92;;;13.30;99.90;;;;;;5049538;28;20017;-45
2021/05/22 07:09:42;;;;;;;7.85;1.70;;;13.00;99.90;;;;;;5050695;28;20104;-45
2021/05/22 07:12:10;;;;;;;4.80;1.75;;;13.00;99.90;;;;;;5048813;28;20064;-46
2021/05/22 07:14:35;;;;;;;7.55;1.95;;;13.20;99.90;;;;;;5030499;28;20021;-45
2021/05/22 07:17:01;;;;;;;6.10;1.92;;;13.30;99.90;;;;;;5030669;28;20037;-45
2021/05/22 07:19:27;;;;;;;8.85;1.73;;;13.40;99.90;;;;;;5030371;28;20100;-45
2021/05/22 07:21:54;;;;;;;8.00;1.80;;;13.50;99.90;;;;;;5030729;28;20132;-45
2021/05/22 07:24:20;;;;;;;5.75;1.55;;;13.50;99.90;;;;;;5030635;28;20026;-46
2021/05/22 07:26:46;;;;;;;4.07;1.80;;;13.70;99.90;;;;;;5030670;28;20056;-46
2021/05/22 07:29:12;;;;;;;5.35;1.75;;;13.80;99.90;;;;;;5029895;28;20413;-45
2021/05/22 07:31:42;;;;;;;7.38;1.92;;;13.80;99.90;;;;;;5030357;28;20108;-45
2021/05/22 07:34:09;;;;;;;6.68;1.70;;;14.00;99.90;;;;;;5030610;28;20030;-45
2021/05/22 07:36:35;;;;;;;7.50;2.03;;;13.90;99.60;;;;;;5030164;28;20483;-45
2021/05/22 07:39:02;;;;;;;8.05;1.42;;;14.10;99.90;;;;;;5029146;28;20388;-45
2021/05/22 07:41:27;;;;;;;12.60;1.90;;;14.20;98.70;;;;;;5029061;28;20105;-45
2021/05/22 07:43:53;;;;;;;5.90;1.50;;;14.20;98.50;;;;;;5029052;28;20535;-45
2021/05/22 07:46:18;;;;;;;6.10;1.90;;;14.30;97.90;;;;;;5029716;28;20030;-45
2021/05/22 07:48:44;;;;;;;5.35;1.77;;;14.30;97.50;;;;;;5028977;28;20104;-47
2021/05/22 07:51:09;;;;;;;5.32;1.30;;;14.60;96.10;;;;;;5028851;28;20507;-46
2021/05/22 07:53:35;;;;;;;7.60;1.35;;;14.50;96.10;;;;;;5029761;28;20095;-45
2021/05/22 07:56:00;;;;;;;2.60;1.40;;;14.50;95.80;;;;;;5030038;28;20025;-46
2021/05/22 07:58:26;;;;;;;5.05;1.65;;;14.60;94.90;;;;;;5029145;28;20053;-46
2021/05/22 08:00:51;;;;;;;6.53;1.50;;;14.80;94.80;;;;;;5030120;28;20033;-46
2021/05/22 08:03:17;;;;;;;2.83;1.17;;;15.10;94.00;;;;;;5029917;28;20037;-46
2021/05/22 08:05:42;;;;;;;4.22;1.20;;;15.30;92.70;;;;;;5029941;28;20021;-48
2021/05/22 08:08:08;;;;;;;4.30;2.03;;;15.20;92.40;;;;;;5029741;28;20021;-47
2021/05/22 08:10:33;;;;;;;4.30;1.67;;;15.00;93.40;;;;;;5029854;28;20112;-46
2021/05/22 08:12:59;;;;;;;4.65;1.60;;;15.40;92.50;;;;;;5029641;28;20525;-48
2021/05/22 08:15:25;;;;;;;5.25;1.60;;;15.70;92.60;;;;;;5029741;28;20089;-46
2021/05/22 08:17:51;;;;;;;17.15;2.30;;;16.10;88.10;;;;;;5029096;28;20140;-46
2021/05/22 08:20:18;;;;;;;5.60;1.55;;;16.20;87.70;;;;;;5029631;28;20100;-46
2021/05/22 08:22:45;;;;;;;9.25;1.55;;;16.50;84.10;;;;;;5028355;28;20025;-46
2021/05/22 08:25:11;;;;;;;5.40;1.30;;;16.30;84.90;;;;;;5029602;28;20028;-46
2021/05/22 08:27:37;;;;;;;5.80;1.88;;;15.70;87.60;;;;;;5028800;28;20207;-47
2021/05/22 08:30:04;;;;;;;4.28;1.33;;;15.70;87.80;;;;;;5029544;28;20060;-49
2021/05/22 08:32:29;;;;;;;8.00;1.77;;;15.50;86.10;;;;;;5029392;28;20454;-48
2021/05/22 08:34:55;;;;;;;7.97;1.73;;;15.30;86.80;;;;;;5029393;28;20088;-48
2021/05/22 08:37:21;;;;;;;5.45;1.48;;;15.60;87.60;;;;;;5028911;28;20028;-48
2021/05/22 08:39:49;;;;;;;8.73;1.27;;;15.90;85.30;;;;;;5028919;28;20025;-47
2021/05/22 08:42:20;;;;;;;3.78;1.52;;;15.50;85.00;;;;;;5029455;28;20026;-48
2021/05/22 08:44:46;;;;;;;3.75;1.17;;;15.80;84.80;;;;;;5028063;28;20299;-45
2021/05/22 08:47:12;;;;;;;8.75;1.45;;;15.60;85.10;;;;;;5029349;28;20090;-46
2021/05/22 08:49:41;;;;;;;4.53;1.40;;;15.40;86.70;;;;;;5027821;28;20045;-46
2021/05/22 08:52:12;;;;;;;5.47;1.30;;;15.50;86.60;;;;;;5029113;28;20053;-47
2021/05/22 08:54:38;;;;;;;4.47;1.33;;;15.40;86.90;;;;;;5029157;28;20095;-46
2021/05/22 08:57:04;;;;;;;6.53;1.52;;;15.10;88.60;;;;;;5029055;28;20471;-47
2021/05/22 08:59:30;;;;;;;6.43;2.08;;;15.00;89.00;;;;;;5028223;28;20026;-45
2021/05/22 09:01:56;;;;;;;5.70;1.65;;;15.10;90.90;;;;;;5028309;28;20083;-46
2021/05/22 09:04:21;;;;;;;6.82;1.73;;;15.10;90.60;;;;;;5028627;28;20032;-47
2021/05/22 09:07:05;;;;;;;5.00;1.77;;;15.20;90.10;;;;;;5028873;28;20030;-47
2021/05/22 09:09:43;;;;;;;6.85;1.50;;;15.30;90.20;;;;;;5028472;28;20017;-46
2021/05/22 09:12:09;;;;;;;3.03;1.40;;;15.10;90.00;;;;;;5028782;28;20064;-47
2021/05/22 09:15:06;;;;;;;5.43;1.73;;;15.50;90.30;;;;;;5029062;28;20420;-49
2021/05/22 09:17:31;;;;;;;9.00;2.22;;;16.10;84.70;;;;;;5027117;28;20037;-46
2021/05/22 09:20:26;;;;;;;2.88;1.48;;;15.60;86.50;;;;;;5028446;28;20398;-46
2021/05/22 09:23:22;;;;;;;6.20;1.50;;;16.40;84.30;;;;;;5028849;28;20036;-46
2021/05/22 09:25:53;;;;;;;3.38;1.10;;;16.60;80.60;;;;;;5022226;28;20171;-46
2021/05/22 09:28:24;;;;;;;5.25;1.25;;;16.70;81.00;;;;;;5028194;28;20187;-49
2021/05/22 09:30:52;;;;;;;4.57;1.42;;;17.20;81.20;;;;;;5028788;28;20561;-46
2021/05/22 09:33:22;;;;;;;5.13;1.48;;;16.70;78.50;;;;;;5028734;28;20026;-45
2021/05/22 09:36:14;;;;;;;;;;;16.60;78.20;;;;;;5028844;28;20030;-45
2021/05/22 09:38:51;;;;;;;4.45;1.45;;;16.10;79.60;;;;;;5024807;28;20159;-46
2021/05/22 09:41:25;;;;;;;7.28;1.23;;;16.20;80.60;;;;;;5028648;28;20109;-46
2021/05/22 09:44:10;;;;;;;4.30;1.60;;;16.00;82.30;;;;;;5027676;28;20029;-46
2021/05/22 09:46:43;;;;;;;5.57;1.30;;;16.00;82.70;;;;;;5028272;28;20037;-47
2021/05/22 09:49:09;;;;;;;5.60;1.30;;;15.70;83.40;;;;;;5027773;28;20034;-47
2021/05/22 09:52:16;;;;;;;7.32;1.30;;;15.50;83.10;;;;;;5028435;28;20033;-47
2021/05/22 09:54:52;;;;;;;13.63;1.73;;;15.20;84.70;;;;;;5028363;28;20022;-46
2021/05/22 09:57:20;;;;;;;9.00;1.77;;;14.80;86.90;;;;;;5028087;28;20391;-45
2021/05/22 10:00:07;;;;;;;4.30;1.88;;;14.70;87.90;;;;;;5027802;28;20498;-46
2021/05/22 10:02:48;;;;;;;7.80;1.40;;;14.80;90.50;;;;;;5026937;28;20498;-46
2021/05/22 10:05:13;;;;;;;;;;;14.60;91.00;;;;;;5028923;28;20060;-45
2021/05/22 10:07:39;;;;;;;4.78;1.70;;;14.50;91.80;;;;;;5027757;28;19948;-46
2021/05/22 10:10:05;;;;;;;4.78;1.35;;;14.10;94.00;;;;;;5026902;28;20017;-46
2021/05/22 10:12:31;;;;;;;3.95;1.30;;;14.00;96.40;;;;;;5027971;28;20026;-46
2021/05/22 10:14:58;;;;;;;2.92;1.00;;;13.80;99.20;;;;;;5030473;28;20026;-46
2021/05/22 10:17:23;;;;;;;3.80;1.40;;;13.70;99.20;;;;;;5031442;28;20025;-47
2021/05/22 10:19:50;;;;;;;4.40;1.60;;;13.70;99.90;;;;;;5031719;28;20104;-46
2021/05/22 10:22:16;;;;;;;4.40;1.30;;;13.90;99.90;;;;;;5031969;28;20029;-46
2021/05/22 10:24:42;;;;;;;3.55;1.15;;;13.80;99.80;;;;;;5030268;28;20454;-47
2021/05/22 10:27:10;;;;;;;2.97;1.05;;;13.90;99.90;;;;;;5031648;28;20057;-48
2021/05/22 10:29:35;;;;;;;2.72;0.95;;;14.20;99.90;;;;;;5030974;28;20026;-47
2021/05/22 10:32:01;;;;;;;3.50;1.27;;;14.30;99.60;;;;;;5031842;28;20033;-48
2021/05/22 10:34:27;;;;;;;3.85;1.20;;;14.60;99.20;;;;;;5032111;28;20069;-47
2021/05/22 10:36:55;;;;;;;2.03;1.25;;;14.70;96.70;;;;;;5031869;28;20450;-47
2021/05/22 10:39:34;;;;;;;3.00;1.05;;;14.90;93.70;;;;;;5031135;28;20021;-47
2021/05/22 10:42:00;;;;;;;3.65;1.10;;;15.20;94.90;;;;;;5031456;28;20041;-47
2021/05/22 10:44:33;;;;;;;4.97;1.50;;;15.10;93.30;;;;;;5030819;28;20029;-48
2021/05/22 10:47:09;;;;;;;3.85;1.60;;;15.10;93.00;;;;;;5031429;28;20026;-46
2021/05/22 10:49:54;;;;;;;2.05;0.90;;;15.10;93.90;;;;;;5030675;28;20034;-47
2021/05/22 10:52:24;;;;;;;6.03;1.40;;;14.90;94.00;;;;;;5031339;28;20497;-47
2021/05/22 10:55:07;;;;;;;4.22;1.23;;;14.50;97.60;;;;;;5031262;28;20484;-46
2021/05/22 10:57:54;;;;;;;7.72;1.83;;;14.50;99.80;;;;;;5028892;28;20029;-47
2021/05/22 11:00:24;;;;;;;2.95;1.27;;;14.20;99.90;;;;;;5031779;28;20021;-49
2021/05/22 11:02:53;;;;;;;2.70;1.20;;;14.10;99.90;;;;;;5031403;28;20080;-50
2021/05/22 11:05:22;;;;;;;2.47;1.10;;;14.10;99.90;;;;;;5031497;28;20379;-47
2021/05/22 11:07:48;;;;;;;5.03;1.45;;;14.20;99.90;;;;;;5030561;28;20494;-47
2021/05/22 11:10:38;;;;;;;6.45;1.35;;;14.20;99.90;;;;;;5031094;28;20018;-48
2021/05/22 11:13:05;;;;;;;1.63;0.90;;;14.30;99.90;;;;;;5030729;28;20034;-47
2021/05/22 11:15:45;;;;;;;2.75;0.98;;;14.30;99.90;;;;;;5031258;28;20026;-48
2021/05/22 11:18:12;;;;;;;5.63;1.10;;;14.40;99.90;;;;;;5029891;28;20026;-49
2021/05/22 11:20:39;;;;;;;2.90;1.00;;;14.60;99.90;;;;;;5030951;28;20025;-47
2021/05/22 11:23:05;;;;;;;2.55;1.38;;;14.90;99.90;;;;;;5030767;28;20522;-48
2021/05/22 11:25:45;;;;;;;4.45;1.40;;;15.00;99.90;;;;;;5029532;28;20039;-48
2021/05/22 11:28:17;;;;;;;6.65;1.33;;;15.10;99.90;;;;;;5049810;28;20044;-47
2021/05/22 11:30:48;;;;;;;3.42;1.23;;;15.10;99.90;;;;;;5050470;28;20543;-47
2021/05/22 11:33:23;;;;;;;3.42;1.45;;;14.80;99.90;;;;;;5050514;28;20064;-47
2021/05/22 11:35:53;;;;;;;5.78;1.35;;;14.70;99.90;;;;;;5050285;28;20364;-47
2021/05/22 11:38:18;;;;;;;5.30;1.40;;;14.30;99.90;;;;;;5049373;28;20071;-47
2021/05/22 11:40:44;;;;;;;5.03;1.52;;;14.10;99.90;;;;;;5049701;28;20021;-47
2021/05/22 11:43:12;;;;;;;2.03;1.08;;;13.80;99.90;;;;;;5049215;28;20102;-47
2021/05/22 11:45:50;;;;;;;4.53;1.20;;;13.80;99.90;;;;;;5028828;28;20112;-47
2021/05/22 11:48:41;;;;;;;4.72;1.80;;;13.90;99.90;;;;;;5029230;28;20033;-47
2021/05/22 11:51:27;;;;;;;9.50;2.13;;;14.10;99.90;;;;;;5029457;28;20434;-47
2021/05/22 11:53:59;;;;;;;4.85;1.15;;;14.30;99.90;;;;;;5028096;28;20112;-47
2021/05/22 11:56:27;;;;;;;1.35;0.80;;;14.60;99.90;;;;;;5029774;28;20441;-49
2021/05/22 11:58:55;;;;;;;3.50;0.95;;;14.70;99.90;;;;;;5028900;28;20025;-47
2021/05/22 12:01:26;;;;;;;2.33;0.75;;;15.00;99.90;;;;;;5029503;28;20073;-49
2021/05/22 12:04:00;;;;;;;3.72;1.13;;;15.40;99.90;;;;;;5029858;28;20032;-46
2021/05/22 12:06:35;;;;;;;1.75;0.82;;;15.60;99.90;;;;;;5029653;28;20566;-47
2021/05/22 12:09:12;;;;;;;3.85;0.90;;;15.80;99.90;;;;;;5029539;28;20055;-47
2021/05/22 12:11:42;;;;;;;1.33;0.70;;;15.90;99.90;;;;;;5029755;28;20084;-47
2021/05/22 12:14:08;;;;;;;1.33;0.68;;;15.90;99.90;;;;;;5029535;28;20025;-47
2021/05/22 12:16:35;;;;;;;6.03;0.75;;;15.80;99.20;;;;;;5028749;28;20391;-46
2021/05/22 12:19:10;;;;;;;3.28;0.80;;;15.40;99.90;;;;;;5029358;28;20029;-47
2021/05/22 12:21:36;;;;;;;4.80;1.00;;;15.20;99.90;;;;;;5029744;28;20515;-46
2021/05/22 12:24:12;;;;;;;1.52;0.65;;;15.20;99.90;;;;;;5029924;28;20292;-45
2021/05/22 12:26:39;;;;;;;3.95;1.00;;;14.90;99.90;;;;;;5029583;28;20029;-45
2021/05/22 12:29:04;;;;;;;1.13;0.70;;;14.50;99.90;;;;;;5027250;28;20060;-46
2021/05/22 12:31:31;;;;;;;1.98;0.95;;;14.20;99.90;;;;;;5029446;28;20505;-45
2021/05/22 12:34:06;;;;;;;2.25;1.13;;;14.10;99.90;;;;;;5029316;28;20029;-47
2021/05/22 12:36:33;;;;;;;2.00;0.88;;;13.90;99.90;;;;;;5028860;28;20028;-47
2021/05/22 12:39:10;;;;;;;3.03;0.80;;;13.90;99.90;;;;;;5028784;28;20022;-46
2021/05/22 12:41:37;;;;;;;8.75;1.98;;;14.00;99.90;;;;;;5029209;28;20029;-45
2021/05/22 12:44:04;;;;;;;4.90;1.10;;;14.20;99.90;;;;;;5028383;28;20049;-46
2021/05/22 12:46:35;;;;;;;1.90;0.82;;;14.20;99.90;;;;;;5029333;28;20029;-46
2021/05/22 12:49:07;;;;;;;1.52;0.70;;;14.20;99.90;;;;;;5028369;28;20104;-47
2021/05/22 12:51:33;;;;;;;2.30;0.80;;;14.00;99.90;;;;;;5029156;28;20033;-48
2021/05/22 12:53:58;;;;;;;1.13;0.75;;;14.20;99.90;;;;;;5029054;28;20154;-46
2021/05/22 12:56:24;;;;;;;2.10;0.90;;;14.50;99.90;;;;;;5029252;28;20091;-48